createdAt,value
2022-09-24T00:01:38.790Z,10.74
2022-09-24T00:04:08.535Z,10.76
2022-09-24T00:06:41.083Z,10.79
2022-09-24T00:09:07.924Z,10.80
2022-09-24T00:11:35.852Z,10.84
2022-09-24T00:14:02.578Z,10.86
2022-09-24T00:16:31.854Z,10.86
2022-09-24T00:18:59.576Z,10.85
2022-09-24T00:21:31.704Z,10.85
2022-09-24T00:24:02.861Z,10.86
2022-09-24T00:26:48.199Z,10.85
2022-09-24T00:29:21.600Z,10.81
2022-09-24T00:31:50.111Z,10.77
2022-09-24T00:34:18.266Z,10.79
2022-09-24T00:36:46.936Z,10.80
2022-09-24T00:39:14.423Z,10.80
2022-09-24T00:41:45.450Z,10.78
2022-09-24T00:44:40.902Z,10.78
2022-09-24T00:47:31.815Z,10.79
2022-09-24T00:50:06.238Z,10.78
2022-09-24T00:52:44.946Z,10.79
2022-09-24T00:55:13.025Z,10.82
2022-09-24T00:57:42.068Z,10.82
2022-09-24T01:00:09.450Z,10.81
2022-09-24T01:02:39.261Z,10.78
2022-09-24T01:05:06.234Z,10.74
2022-09-24T01:07:33.004Z,10.71
2022-09-24T01:09:59.810Z,10.65
2022-09-24T01:12:37.883Z,10.63
2022-09-24T01:15:25.035Z,10.64
2022-09-24T01:18:12.267Z,10.65
2022-09-24T01:20:46.421Z,10.63
2022-09-24T01:23:31.858Z,10.56
2022-09-24T01:26:32.398Z,10.52
2022-09-24T01:29:19.153Z,10.51
2022-09-24T01:31:53.422Z,10.50
2022-09-24T01:34:27.117Z,10.51
2022-09-24T01:36:59.882Z,10.50
2022-09-24T01:39:27.509Z,10.48
2022-09-24T01:41:54.872Z,10.48
2022-09-24T01:44:21.759Z,10.49
2022-09-24T01:46:50.266Z,10.46
2022-09-24T01:49:18.097Z,10.50
2022-09-24T01:51:52.648Z,10.51
2022-09-24T01:54:28.447Z,10.52
2022-09-24T01:57:07.830Z,10.50
2022-09-24T01:59:54.157Z,10.51
2022-09-24T02:02:31.089Z,10.51
2022-09-24T02:05:26.860Z,10.51
2022-09-24T02:08:18.636Z,10.51
2022-09-24T02:10:57.759Z,10.46
2022-09-24T02:13:28.972Z,10.50
2022-09-24T02:16:00.755Z,10.53
2022-09-24T02:18:36.452Z,10.53
2022-09-24T02:21:07.866Z,10.56
2022-09-24T02:23:38.639Z,10.54
2022-09-24T02:26:06.189Z,10.53
2022-09-24T02:28:34.261Z,10.53
2022-09-24T02:31:14.656Z,10.53
2022-09-24T02:34:04.386Z,10.53
2022-09-24T02:36:32.012Z,10.50
2022-09-24T02:38:59.412Z,10.48
2022-09-24T02:41:27.164Z,10.49
2022-09-24T02:43:54.075Z,10.51
2022-09-24T02:46:20.834Z,10.57
2022-09-24T02:48:47.612Z,10.51
2022-09-24T02:51:14.678Z,10.48
2022-09-24T02:53:41.701Z,10.48
2022-09-24T02:56:08.669Z,10.48
2022-09-24T02:58:37.613Z,10.47
2022-09-24T03:01:05.434Z,10.43
2022-09-24T03:03:32.840Z,10.45
2022-09-24T03:06:00.906Z,10.45
2022-09-24T03:08:27.591Z,10.44
2022-09-24T03:10:56.225Z,10.45
2022-09-24T03:13:23.549Z,10.45
2022-09-24T03:15:50.434Z,10.43
2022-09-24T03:18:17.454Z,10.48
2022-09-24T03:20:44.213Z,10.48
2022-09-24T03:23:10.895Z,10.43
2022-09-24T03:25:37.578Z,10.43
2022-09-24T03:28:04.263Z,10.44
2022-09-24T03:30:49.751Z,10.42
2022-09-24T03:33:16.580Z,10.42
2022-09-24T03:35:43.292Z,10.39
2022-09-24T03:38:10.034Z,10.35
2022-09-24T03:40:36.908Z,10.33
2022-09-24T03:43:05.256Z,10.31
2022-09-24T03:45:32.031Z,10.31
2022-09-24T03:47:58.722Z,10.30
2022-09-24T03:50:26.022Z,10.29
2022-09-24T03:52:53.727Z,10.28
2022-09-24T03:55:20.467Z,10.25
2022-09-24T03:57:47.183Z,10.23
2022-09-24T04:00:14.308Z,10.20
2022-09-24T04:02:41.270Z,10.20
2022-09-24T04:05:08.397Z,10.19
2022-09-24T04:07:35.094Z,10.14
2022-09-24T04:10:01.899Z,10.10
2022-09-24T04:12:29.767Z,10.05
2022-09-24T04:14:56.679Z,10.01
2022-09-24T04:17:23.399Z,9.94
2022-09-24T04:19:51.122Z,9.88
2022-09-24T04:22:29.185Z,9.81
2022-09-24T04:24:59.025Z,9.74
2022-09-24T04:27:25.699Z,9.71
2022-09-24T04:29:54.348Z,9.65
2022-09-24T04:32:22.590Z,9.62
2022-09-24T04:34:49.495Z,9.57
2022-09-24T04:37:16.185Z,9.55
2022-09-24T04:39:42.897Z,9.52
2022-09-24T04:42:09.569Z,9.51
2022-09-24T04:44:39.124Z,9.48
2022-09-24T04:47:07.686Z,9.45
2022-09-24T04:49:34.421Z,9.39
2022-09-24T04:52:01.687Z,9.38
2022-09-24T04:54:29.332Z,9.34
2022-09-24T04:56:56.056Z,9.31
2022-09-24T04:59:23.366Z,9.29
2022-09-24T05:01:50.399Z,9.28
2022-09-24T05:04:18.134Z,9.26
2022-09-24T05:06:44.818Z,9.22
2022-09-24T05:09:12.757Z,9.22
2022-09-24T05:11:39.636Z,9.21
2022-09-24T05:14:06.353Z,9.17
2022-09-24T05:16:33.067Z,9.14
2022-09-24T05:18:59.941Z,9.12
2022-09-24T05:21:26.908Z,9.09
2022-09-24T05:23:55.130Z,9.07
2022-09-24T05:26:40.448Z,9.04
2022-09-24T05:29:07.216Z,9.02
2022-09-24T05:31:34.078Z,9.02
2022-09-24T05:34:00.815Z,9.04
2022-09-24T05:36:27.554Z,9.06
2022-09-24T05:38:54.231Z,9.11
2022-09-24T05:41:21.649Z,9.16
2022-09-24T05:43:49.411Z,9.23
2022-09-24T05:46:17.266Z,9.28
2022-09-24T05:48:44.013Z,9.32
2022-09-24T05:51:10.714Z,9.33
2022-09-24T05:53:37.421Z,9.38
2022-09-24T05:56:04.279Z,9.43
2022-09-24T05:58:31.750Z,9.45
2022-09-24T06:01:04.414Z,9.47
2022-09-24T06:03:31.866Z,9.47
2022-09-24T06:06:04.941Z,9.49
2022-09-24T06:08:35.371Z,9.48
2022-09-24T06:11:06.951Z,9.45
2022-09-24T06:13:35.076Z,9.43
2022-09-24T06:16:04.460Z,9.42
2022-09-24T06:18:33.472Z,9.42
2022-09-24T06:21:05.114Z,9.44
2022-09-24T06:23:31.990Z,9.43
2022-09-24T06:25:58.993Z,9.44
2022-09-24T06:28:25.783Z,9.44
2022-09-24T06:30:53.501Z,9.44
2022-09-24T06:33:21.156Z,9.46
2022-09-24T06:35:48.574Z,9.45
2022-09-24T06:38:18.220Z,9.40
2022-09-24T06:40:47.088Z,9.38
2022-09-24T06:43:14.494Z,9.37
2022-09-24T06:45:44.694Z,9.33
2022-09-24T06:48:13.607Z,9.30
2022-09-24T06:50:43.352Z,9.32
2022-09-24T06:53:11.005Z,9.35
2022-09-24T06:55:39.378Z,9.36
2022-09-24T06:58:08.777Z,9.34
2022-09-24T07:00:36.915Z,9.37
2022-09-24T07:03:05.819Z,9.35
2022-09-24T07:05:40.916Z,9.35
2022-09-24T07:08:10.059Z,9.37
2022-09-24T07:10:37.963Z,9.36
2022-09-24T07:13:05.726Z,9.42
2022-09-24T07:15:32.378Z,9.53
2022-09-24T07:17:59.180Z,9.65
2022-09-24T07:20:29.330Z,9.77
2022-09-24T07:22:56.427Z,9.82
2022-09-24T07:25:23.319Z,9.90
2022-09-24T07:27:50.191Z,10.01
2022-09-24T07:30:19.235Z,10.11
2022-09-24T07:32:45.977Z,10.21
2022-09-24T07:35:12.688Z,10.26
2022-09-24T07:37:39.421Z,10.33
2022-09-24T07:40:06.646Z,10.36
2022-09-24T07:42:33.475Z,10.38
2022-09-24T07:45:00.982Z,10.42
2022-09-24T07:47:27.697Z,10.44
2022-09-24T07:49:54.460Z,10.44
2022-09-24T07:52:21.216Z,10.46
2022-09-24T07:54:48.055Z,10.51
2022-09-24T07:57:14.791Z,10.54
2022-09-24T07:59:42.071Z,10.58
2022-09-24T08:02:16.923Z,10.68
2022-09-24T08:04:44.663Z,10.77
2022-09-24T08:07:13.120Z,10.87
2022-09-24T08:09:39.905Z,10.89
2022-09-24T08:12:08.048Z,10.95
2022-09-24T08:14:35.072Z,11.01
2022-09-24T08:17:02.851Z,11.04
2022-09-24T08:19:31.056Z,11.05
2022-09-24T08:22:00.791Z,11.06
2022-09-24T08:24:31.931Z,11.05
2022-09-24T08:26:58.839Z,11.09
2022-09-24T08:29:25.561Z,11.12
2022-09-24T08:31:52.944Z,11.15
2022-09-24T08:34:19.645Z,11.18
2022-09-24T08:36:46.386Z,11.21
2022-09-24T08:39:13.838Z,11.28
2022-09-24T08:41:53.847Z,11.35
2022-09-24T08:45:00.474Z,11.41
2022-09-24T08:47:55.184Z,11.48
2022-09-24T08:50:26.576Z,11.51
2022-09-24T08:53:13.321Z,11.62
2022-09-24T08:55:46.168Z,11.71
2022-09-24T08:58:46.708Z,11.83
2022-09-24T09:01:17.283Z,11.91
2022-09-24T09:04:12.951Z,11.99
2022-09-24T09:07:05.220Z,12.09
2022-09-24T09:09:47.101Z,12.16
2022-09-24T09:12:30.972Z,12.25
2022-09-24T09:15:21.737Z,12.41
2022-09-24T09:17:59.016Z,12.72
2022-09-24T09:20:52.692Z,13.08
2022-09-24T09:23:22.155Z,13.94
2022-09-24T09:25:54.735Z,14.89
2022-09-24T09:28:21.680Z,15.49
2022-09-24T09:30:58.974Z,15.74
2022-09-24T09:33:40.727Z,15.99
2022-09-24T09:36:37.440Z,17.28
2022-09-24T09:39:37.256Z,18.38
2022-09-24T09:42:19.051Z,19.19
2022-09-24T09:44:46.277Z,19.83
2022-09-24T09:47:19.323Z,20.46
2022-09-24T09:49:48.896Z,20.28
2022-09-24T09:52:21.321Z,19.86
2022-09-24T09:54:48.799Z,19.58
2022-09-24T09:57:24.136Z,19.61
2022-09-24T09:59:53.557Z,19.62
2022-09-24T10:02:34.080Z,19.00
2022-09-24T10:05:06.266Z,18.14
2022-09-24T10:07:43.903Z,17.49
2022-09-24T10:10:18.569Z,17.54
2022-09-24T10:12:45.459Z,17.65
2022-09-24T10:15:24.789Z,17.12
2022-09-24T10:17:55.296Z,16.59
2022-09-24T10:20:29.159Z,16.28
2022-09-24T10:23:02.688Z,15.99
2022-09-24T10:25:31.511Z,15.69
2022-09-24T10:28:20.237Z,15.59
2022-09-24T10:31:30.706Z,15.46
2022-09-24T10:34:02.949Z,15.16
2022-09-24T10:36:35.001Z,14.98
2022-09-24T10:39:22.907Z,14.94
2022-09-24T10:41:53.088Z,14.98
2022-09-24T10:44:21.649Z,15.23
2022-09-24T10:46:57.294Z,15.74
2022-09-24T10:49:38.893Z,15.73
2022-09-24T10:52:30.103Z,15.30
2022-09-24T10:55:02.456Z,14.76
2022-09-24T10:57:45.838Z,15.05
2022-09-24T11:00:22.586Z,15.83
2022-09-24T11:03:00.772Z,16.36
2022-09-24T11:05:45.353Z,16.59
2022-09-24T11:08:33.018Z,16.40
2022-09-24T11:11:15.807Z,16.08
2022-09-24T11:13:51.745Z,15.69
2022-09-24T11:16:28.182Z,15.26
2022-09-24T11:18:54.864Z,14.82
2022-09-24T11:21:28.997Z,14.68
2022-09-24T11:24:32.547Z,14.81
2022-09-24T11:27:05.064Z,15.03
2022-09-24T11:29:51.815Z,15.17
2022-09-24T11:32:21.325Z,15.06
2022-09-24T11:34:54.640Z,14.87
2022-09-24T11:37:42.644Z,14.69
2022-09-24T11:40:20.897Z,14.69
2022-09-24T11:42:57.057Z,14.76
2022-09-24T11:45:45.613Z,14.72
2022-09-24T11:48:25.848Z,14.69
2022-09-24T11:50:55.262Z,14.72
2022-09-24T11:53:49.837Z,14.67
2022-09-24T11:56:44.609Z,14.58
2022-09-24T11:59:24.232Z,14.49
2022-09-24T12:01:57.642Z,14.59
2022-09-24T12:04:45.719Z,14.77
2022-09-24T12:07:20.304Z,14.86
2022-09-24T12:09:58.841Z,15.01
2022-09-24T12:12:37.607Z,15.15
2022-09-24T12:15:13.370Z,15.27
2022-09-24T12:18:06.438Z,15.37
2022-09-24T12:20:45.375Z,15.48
2022-09-24T12:23:17.505Z,15.56
2022-09-24T12:25:49.313Z,15.61
2022-09-24T12:28:39.082Z,15.65
2022-09-24T12:31:41.968Z,15.71
2022-09-24T12:34:24.773Z,15.86
2022-09-24T12:37:07.521Z,15.84
2022-09-24T12:40:11.001Z,15.86
2022-09-24T12:42:44.862Z,16.04
2022-09-24T12:45:17.779Z,16.15
2022-09-24T12:47:52.084Z,16.29
2022-09-24T12:50:27.574Z,16.24
2022-09-24T12:52:58.053Z,16.09
2022-09-24T12:55:30.584Z,15.90
2022-09-24T12:58:00.331Z,15.77
2022-09-24T13:00:45.664Z,15.63
2022-09-24T13:03:35.979Z,15.87
2022-09-24T13:06:17.627Z,16.15
2022-09-24T13:08:44.412Z,16.32
2022-09-24T13:11:26.188Z,16.42
2022-09-24T13:14:21.957Z,16.28
2022-09-24T13:16:51.199Z,16.05
2022-09-24T13:19:31.219Z,16.21
2022-09-24T13:22:00.623Z,16.62
2022-09-24T13:24:47.632Z,17.04
2022-09-24T13:27:32.289Z,16.94
2022-09-24T13:30:05.226Z,16.66
2022-09-24T13:32:37.285Z,16.33
2022-09-24T13:35:09.671Z,16.02
2022-09-24T13:37:41.713Z,16.03
2022-09-24T13:40:21.798Z,16.24
2022-09-24T13:42:57.301Z,16.55
2022-09-24T13:45:24.908Z,16.86
2022-09-24T13:47:53.652Z,17.21
2022-09-24T13:50:29.308Z,17.55
2022-09-24T13:53:08.922Z,17.88
2022-09-24T13:55:43.217Z,17.87
2022-09-24T13:58:31.422Z,17.39
2022-09-24T14:01:01.406Z,16.98
2022-09-24T14:03:33.809Z,17.00
2022-09-24T14:06:19.275Z,17.29
2022-09-24T14:08:47.611Z,17.49
2022-09-24T14:11:26.407Z,17.73
2022-09-24T14:13:55.203Z,17.90
2022-09-24T14:16:26.107Z,18.09
2022-09-24T14:19:04.446Z,18.33
2022-09-24T14:21:44.352Z,18.18
2022-09-24T14:24:20.557Z,17.89
2022-09-24T14:26:54.013Z,17.53
2022-09-24T14:29:27.643Z,17.20
2022-09-24T14:31:58.594Z,16.93
2022-09-24T14:34:35.235Z,17.05
2022-09-24T14:37:23.653Z,17.16
2022-09-24T14:39:57.564Z,17.25
2022-09-24T14:42:30.319Z,17.43
2022-09-24T14:44:57.530Z,17.61
2022-09-24T14:47:30.980Z,17.77
2022-09-24T14:49:57.936Z,17.92
2022-09-24T14:52:37.752Z,18.08
2022-09-24T14:55:17.723Z,18.22
2022-09-24T14:57:49.123Z,18.34
2022-09-24T15:00:20.908Z,18.42
2022-09-24T15:02:55.969Z,18.49
2022-09-24T15:05:27.868Z,18.50
2022-09-24T15:08:08.120Z,18.59
2022-09-24T15:10:35.072Z,18.70
2022-09-24T15:13:12.985Z,18.78
2022-09-24T15:15:40.131Z,18.83
2022-09-24T15:18:11.522Z,18.78
2022-09-24T15:20:38.733Z,18.69
2022-09-24T15:23:05.707Z,18.39
2022-09-24T15:25:32.452Z,18.12
2022-09-24T15:27:59.439Z,18.13
2022-09-24T15:30:26.245Z,18.11
2022-09-24T15:32:52.935Z,17.93
2022-09-24T15:35:19.865Z,17.77
2022-09-24T15:37:46.883Z,17.61
2022-09-24T15:40:22.698Z,17.44
2022-09-24T15:42:51.061Z,17.19
2022-09-24T15:45:22.758Z,17.01
2022-09-24T15:47:53.166Z,17.11
2022-09-24T15:50:22.035Z,17.39
2022-09-24T15:53:13.297Z,17.61
2022-09-24T15:55:40.068Z,17.66
2022-09-24T15:58:19.084Z,17.67
2022-09-24T16:00:46.656Z,17.67
2022-09-24T16:03:23.745Z,17.43
2022-09-24T16:05:50.480Z,17.32
2022-09-24T16:08:17.654Z,17.41
2022-09-24T16:10:47.030Z,17.33
2022-09-24T16:13:15.692Z,17.20
2022-09-24T16:15:42.541Z,17.12
2022-09-24T16:18:14.922Z,17.10
2022-09-24T16:20:43.059Z,17.15
2022-09-24T16:23:14.799Z,17.25
2022-09-24T16:25:59.421Z,17.10
2022-09-24T16:28:27.777Z,16.85
2022-09-24T16:30:55.260Z,16.64
2022-09-24T16:33:22.594Z,16.50
2022-09-24T16:35:49.627Z,16.36
2022-09-24T16:38:22.566Z,16.29
2022-09-24T16:40:59.754Z,16.15
2022-09-24T16:43:26.491Z,15.99
2022-09-24T16:45:53.275Z,15.90
2022-09-24T16:48:19.996Z,15.81
2022-09-24T16:50:48.929Z,15.72
2022-09-24T16:53:16.647Z,15.64
2022-09-24T16:55:43.371Z,15.59
2022-09-24T16:58:10.845Z,15.56
2022-09-24T17:00:42.402Z,15.61
2022-09-24T17:03:11.331Z,15.61
2022-09-24T17:05:40.719Z,15.62
2022-09-24T17:08:07.456Z,15.64
2022-09-24T17:10:34.228Z,15.60
2022-09-24T17:13:02.292Z,15.58
2022-09-24T17:15:29.077Z,15.50
2022-09-24T17:17:55.807Z,15.40
2022-09-24T17:20:22.495Z,15.37
2022-09-24T17:22:49.900Z,15.31
2022-09-24T17:25:16.704Z,15.25
2022-09-24T17:27:44.973Z,15.17
2022-09-24T17:30:12.071Z,15.07
2022-09-24T17:32:38.803Z,15.02
2022-09-24T17:35:08.180Z,15.00
2022-09-24T17:37:34.972Z,14.96
2022-09-24T17:40:04.348Z,14.93
2022-09-24T17:42:32.242Z,14.90
2022-09-24T17:44:59.010Z,14.88
2022-09-24T17:47:45.636Z,14.89
2022-09-24T17:50:12.311Z,14.88
2022-09-24T17:52:38.980Z,14.86
2022-09-24T17:55:08.949Z,14.86
2022-09-24T17:57:38.338Z,14.84
2022-09-24T18:00:06.131Z,14.85
2022-09-24T18:02:32.938Z,14.85
2022-09-24T18:04:59.699Z,14.82
2022-09-24T18:07:26.481Z,14.78
2022-09-24T18:09:56.203Z,14.74
2022-09-24T18:12:23.108Z,14.75
2022-09-24T18:14:49.785Z,14.73
2022-09-24T18:17:16.509Z,14.74
2022-09-24T18:19:43.169Z,14.74
2022-09-24T18:22:11.453Z,14.73
2022-09-24T18:24:38.260Z,14.71
2022-09-24T18:27:05.298Z,14.68
2022-09-24T18:29:32.129Z,14.65
2022-09-24T18:31:58.941Z,14.65
2022-09-24T18:34:25.640Z,14.61
2022-09-24T18:36:52.310Z,14.59
2022-09-24T18:39:24.655Z,14.59
2022-09-24T18:41:52.201Z,14.55
2022-09-24T18:44:19.806Z,14.55
2022-09-24T18:46:49.950Z,14.55
2022-09-24T18:49:17.499Z,14.54
2022-09-24T18:51:44.243Z,14.52
2022-09-24T18:54:14.812Z,14.50
2022-09-24T18:56:43.624Z,14.50
2022-09-24T18:59:13.099Z,14.45
2022-09-24T19:01:42.351Z,14.42
2022-09-24T19:04:10.897Z,14.41
2022-09-24T19:06:40.278Z,14.40
2022-09-24T19:09:09.195Z,14.36
2022-09-24T19:11:37.077Z,14.31
2022-09-24T19:14:05.588Z,14.26
2022-09-24T19:16:32.551Z,14.20
2022-09-24T19:19:01.055Z,14.15
2022-09-24T19:21:28.325Z,14.10
2022-09-24T19:23:57.218Z,14.07
2022-09-24T19:26:26.933Z,14.02
2022-09-24T19:28:54.100Z,13.91
2022-09-24T19:31:24.534Z,13.84
2022-09-24T19:33:53.024Z,13.74
2022-09-24T19:36:21.570Z,13.64
2022-09-24T19:38:51.178Z,13.57
2022-09-24T19:41:25.182Z,13.46
2022-09-24T19:43:57.083Z,13.39
2022-09-24T19:46:25.671Z,13.32
2022-09-24T19:48:54.864Z,13.22
2022-09-24T19:51:24.825Z,13.15
2022-09-24T19:53:53.840Z,13.12
2022-09-24T19:56:23.475Z,13.08
2022-09-24T19:58:53.246Z,13.03
2022-09-24T20:01:21.458Z,13.00
2022-09-24T20:03:48.541Z,12.94
2022-09-24T20:06:18.756Z,12.91
2022-09-24T20:08:46.813Z,12.94
2022-09-24T20:11:18.274Z,12.94
2022-09-24T20:13:48.535Z,12.94
2022-09-24T20:16:23.750Z,12.96
2022-09-24T20:18:54.578Z,12.96
2022-09-24T20:21:21.680Z,12.92
2022-09-24T20:23:48.847Z,12.90
2022-09-24T20:26:36.178Z,12.84
2022-09-24T20:29:02.968Z,12.79
2022-09-24T20:31:30.314Z,12.77
2022-09-24T20:33:57.291Z,12.72
2022-09-24T20:36:24.937Z,12.67
2022-09-24T20:38:53.482Z,12.61
2022-09-24T20:41:22.806Z,12.56
2022-09-24T20:43:50.536Z,12.50
2022-09-24T20:46:24.455Z,12.44
2022-09-24T20:48:58.259Z,12.41
2022-09-24T20:51:27.320Z,12.36
2022-09-24T20:53:54.730Z,12.33
2022-09-24T20:56:22.158Z,12.33
2022-09-24T20:58:50.960Z,12.32
2022-09-24T21:01:17.979Z,12.28
2022-09-24T21:03:45.787Z,12.20
2022-09-24T21:06:15.107Z,12.16
2022-09-24T21:08:44.279Z,12.13
2022-09-24T21:11:20.996Z,12.09
2022-09-24T21:13:53.023Z,12.04
2022-09-24T21:16:21.750Z,12.02
2022-09-24T21:18:49.900Z,11.98
2022-09-24T21:21:21.986Z,11.95
2022-09-24T21:23:50.776Z,11.90
2022-09-24T21:26:25.806Z,11.84
2022-09-24T21:28:55.720Z,11.79
2022-09-24T21:31:24.873Z,11.76
2022-09-24T21:33:53.395Z,11.73
2022-09-24T21:36:26.384Z,11.72
2022-09-24T21:39:01.076Z,11.66
2022-09-24T21:41:33.147Z,11.63
2022-09-24T21:44:00.533Z,11.59
2022-09-24T21:46:31.370Z,11.56
2022-09-24T21:48:59.429Z,11.52
2022-09-24T21:51:27.568Z,11.50
2022-09-24T21:54:00.339Z,11.50
2022-09-24T21:56:27.215Z,11.49
2022-09-24T21:58:54.788Z,11.46
2022-09-24T22:01:27.853Z,11.43
2022-09-24T22:03:57.513Z,11.38
2022-09-24T22:06:28.608Z,11.36
2022-09-24T22:09:02.590Z,11.32
2022-09-24T22:11:29.527Z,11.30
2022-09-24T22:14:01.254Z,11.25
2022-09-24T22:16:29.692Z,11.21
2022-09-24T22:18:56.826Z,11.16
2022-09-24T22:21:23.589Z,11.14
2022-09-24T22:23:50.844Z,11.13
2022-09-24T22:26:18.723Z,11.09
2022-09-24T22:28:46.371Z,11.06
2022-09-24T22:31:15.572Z,11.06
2022-09-24T22:34:00.959Z,11.06
2022-09-24T22:36:29.767Z,11.02
2022-09-24T22:38:57.890Z,10.99
2022-09-24T22:41:25.278Z,10.96
2022-09-24T22:43:52.578Z,10.92
2022-09-24T22:46:20.076Z,10.87
2022-09-24T22:48:47.701Z,10.81
2022-09-24T22:51:14.867Z,10.80
2022-09-24T22:53:41.920Z,10.75
2022-09-24T22:56:14.245Z,10.69
2022-09-24T22:58:43.382Z,10.66
2022-09-24T23:01:13.745Z,10.65
2022-09-24T23:03:41.149Z,10.61
2022-09-24T23:06:08.714Z,10.63
2022-09-24T23:08:36.831Z,10.62
2022-09-24T23:11:11.943Z,10.56
2022-09-24T23:13:40.167Z,10.54
2022-09-24T23:16:17.667Z,10.52
2022-09-24T23:18:46.820Z,10.52
2022-09-24T23:21:16.105Z,10.50
2022-09-24T23:23:44.464Z,10.48
2022-09-24T23:26:18.241Z,10.49
2022-09-24T23:28:53.372Z,10.48
2022-09-24T23:31:27.442Z,10.46
2022-09-24T23:33:55.946Z,10.42
2022-09-24T23:36:23.755Z,10.42
2022-09-24T23:38:50.471Z,10.40
2022-09-24T23:41:17.325Z,10.39
2022-09-24T23:43:44.255Z,10.38
2022-09-24T23:46:11.528Z,10.38
2022-09-24T23:48:38.694Z,10.34
2022-09-24T23:51:07.286Z,10.28
2022-09-24T23:53:35.252Z,10.23
2022-09-24T23:56:03.694Z,10.23
2022-09-24T23:58:30.699Z,10.22
